Change the Weather History Date:

Wednesday, September 11, 2013

  Actual Average Record
Temperature  
Mean Temperature 70 °F -  
Max Temperature 75 °F 85 °F 93 °F (2004)
Min Temperature 66 °F 59 °F 50 °F (2010)
Cooling Degree Days 6    
Growing Degree Days 20 (Base 50)    
Moisture  
Dew Point 66 °F    
Average Humidity 95    
Maximum Humidity 100    
Minimum Humidity 69    
Precipitation  
Precipitation 0.36 in - - ()
Sea Level Pressure  
Sea Level Pressure 30.08 in    
Wind  
Wind Speed 4 mph (NE)    
Max Wind Speed 13 mph    
Max Gust Speed -    
Visibility 8 miles    
Events Rain , Thunderstorm    
Averages and records for this station are not official NWS values.
T = Trace of Precipitation, MM = Missing Value Source: NWS Daily Summary

Daily Weather History Graph

Daily Weather History Graph

Search for Another Location

Airport or City:

Trip Planner

Search our weather history database for the weather conditions in past years. The results will help you decide how hot, cold, wet, or windy it might be!

Date:

Astronomy

Sep. 11, 2013 Rise Set
Actual Time 6:45 AM MDT 7:15 PM MDT
Civil Twilight 6:20 AM MDT 7:40 PM MDT
Nautical Twilight 5:51 AM MDT 8:09 PM MDT
Astronomical Twilight 5:22 AM MDT 8:39 PM MDT
Moon 12:56 PM MDT (9/11) 11:34 PM MDT (9/11)
Length of Visible Light 13h 19m
Length of Day
12h 29m
Waxing Crescent, 39% of the Moon is Illuminated
Sep 11
Waxing Crescent
Sep 12
First Quarter
Sep 19
Full
Sep 26
Last Quarter
Oct 4
New

Hourly Weather History & Observations

Time (MDT) Temp. Dew Point Humidity Pressure Visibility Wind Dir Wind Speed Gust Speed Precip Events Conditions
12:58 AM 66.7 °F 66.7 °F 100% 29.91 in 10.0 mi East 2.3 mph - N/A   Partly Cloudy
1:58 AM 67.1 °F 67.1 °F 100% 29.91 in 10.0 mi North 3.5 mph - N/A   Clear
2:13 AM 66.2 °F 66.2 °F 100% 30.08 in 10.0 mi North 3.5 mph - N/A Rain Light Rain
2:24 AM 66.2 °F 66.2 °F 100% 30.08 in 10.0 mi NW 2.3 mph - N/A   Clear
2:58 AM 66.9 °F 66.9 °F 100% 29.90 in 10.0 mi North 2.3 mph - 0.00 in   Clear
3:58 AM 66.9 °F 66.9 °F 100% 30.07 in 10.0 mi WNW 3.5 mph - N/A   Partly Cloudy
4:58 AM 66.4 °F 66.4 °F 100% 30.07 in 10.0 mi WNW 2.3 mph - N/A   Clear
5:02 AM 66.2 °F 66.2 °F 100% 30.07 in 10.0 mi NW 3.5 mph - N/A   Partly Cloudy
5:08 AM 66.2 °F 66.2 °F 100% 30.07 in 10.0 mi WNW 3.5 mph - N/A   Light Drizzle
5:20 AM 66.2 °F 66.2 °F 100% 30.08 in 3.0 mi NW 2.3 mph - N/A Rain Light Rain
5:23 AM 66.2 °F 66.2 °F 100% 30.08 in 3.0 mi NW 3.5 mph - N/A Rain Light Rain
5:26 AM 66.2 °F 66.2 °F 100% 30.07 in 6.0 mi NW 4.6 mph - N/A Rain Light Rain
5:46 AM 66.2 °F 66.2 °F 100% 30.08 in 10.0 mi NW 5.8 mph - N/A   Mostly Cloudy
5:58 AM 66.4 °F 66.4 °F 100% 29.91 in 10.0 mi NW 4.6 mph - 0.04 in   Mostly Cloudy
6:04 AM 66.2 °F 66.2 °F 100% 30.08 in 10.0 mi NNW 4.6 mph - N/A   Mostly Cloudy
6:22 AM 66.2 °F 66.2 °F 100% 30.08 in 10.0 mi NNW 4.6 mph - N/A   Mostly Cloudy
6:55 AM 66.2 °F 66.2 °F 100% 30.09 in 10.0 mi NNE 4.6 mph - N/A   Mostly Cloudy
6:59 AM 66.4 °F 66.4 °F 100% 29.92 in 10.0 mi North 4.6 mph - N/A   Mostly Cloudy
7:11 AM 66.2 °F 66.2 °F 100% 30.09 in 10.0 mi North 4.6 mph - N/A   Scattered Clouds
7:42 AM 66.2 °F 66.2 °F 100% 30.10 in 10.0 mi North 2.3 mph - N/A   Light Drizzle
7:47 AM 66.2 °F 66.2 °F 100% 30.10 in 8.0 mi NNE 2.3 mph - N/A Rain Light Rain
7:58 AM 66.6 °F 66.6 °F 100% 29.94 in 4.0 mi ENE 3.5 mph - 0.01 in Rain Light Rain
8:01 AM 66.2 °F 66.2 °F 100% 30.11 in 2.5 mi ENE 3.5 mph - N/A Rain Light Rain
8:04 AM 66.2 °F 66.2 °F 100% 30.11 in 1.5 mi NE 3.5 mph - N/A Rain Light Rain
8:13 AM 66.2 °F 66.2 °F 100% 30.11 in 1.5 mi ENE 2.3 mph - N/A Rain Light Rain
8:16 AM 66.2 °F 66.2 °F 100% 30.12 in 2.5 mi East 2.3 mph - N/A Rain Light Rain
8:19 AM 66.2 °F 66.2 °F 100% 30.12 in 2.5 mi East 3.5 mph - N/A Rain Rain
8:22 AM 66.2 °F 66.2 °F 100% 30.12 in 1.8 mi East 4.6 mph - N/A Rain Rain
8:25 AM 66.2 °F 66.2 °F 100% 30.12 in 1.2 mi East 4.6 mph - N/A Rain Rain
8:28 AM 66.2 °F 66.2 °F 100% 30.12 in 1.0 mi East 3.5 mph - N/A Rain Rain
8:31 AM 66.2 °F 66.2 °F 100% 30.12 in 1.2 mi East 4.6 mph - N/A Rain Light Rain
8:34 AM 66.2 °F 66.2 °F 100% 30.12 in 1.8 mi East 4.6 mph - N/A Rain Light Rain
8:37 AM 66.2 °F 66.2 °F 100% 30.12 in 2.0 mi East 3.5 mph - N/A Rain Light Rain
8:40 AM 66.2 °F 66.2 °F 100% 30.12 in 2.5 mi ENE 3.5 mph - N/A Rain Light Rain
8:43 AM 66.2 °F 66.2 °F 100% 30.12 in 3.0 mi ENE 3.5 mph - N/A Rain Light Rain
8:55 AM 66.2 °F 66.2 °F 100% 30.12 in 7.0 mi NNE 3.5 mph - N/A Rain Light Rain
8:59 AM 66.6 °F 66.6 °F 100% 29.96 in 7.0 mi NNE 3.5 mph - 0.24 in Rain Light Rain
9:01 AM 66.2 °F 66.2 °F 100% 30.12 in 4.0 mi NNE 4.6 mph - N/A Rain Light Rain
9:04 AM 66.2 °F 66.2 °F 100% 30.12 in 4.0 mi NNE 3.5 mph - N/A Rain Light Rain
9:17 AM 66.2 °F 66.2 °F 100% 30.13 in 6.0 mi East 2.3 mph - N/A Rain Light Rain
9:38 AM 66.2 °F 66.2 °F 100% 30.14 in 9.0 mi East 3.5 mph - N/A Rain Light Rain
9:44 AM 66.2 °F 66.2 °F 100% 30.14 in 8.0 mi East 4.6 mph - N/A   Light Drizzle
9:54 AM 66.2 °F 66.2 °F 100% 30.14 in 10.0 mi ENE 6.9 mph - N/A   Mostly Cloudy
9:58 AM 66.7 °F 66.7 °F 100% 29.98 in 10.0 mi ENE 5.8 mph - 0.05 in   Mostly Cloudy
10:01 AM 66.2 °F 66.2 °F 100% 30.14 in 10.0 mi East 5.8 mph - N/A   Mostly Cloudy
10:04 AM 66.2 °F 66.2 °F 100% 30.14 in 10.0 mi East 6.9 mph - N/A Rain Light Rain
10:07 AM 66.2 °F 66.2 °F 100% 30.14 in 8.0 mi East 6.9 mph - N/A Rain Light Rain
10:08 AM 66.2 °F 66.2 °F 100% 30.14 in 8.0 mi East 6.9 mph - N/A Rain Light Rain
10:11 AM 66.2 °F 66.2 °F 100% 30.14 in 8.0 mi East 6.9 mph - N/A Rain Light Rain
10:21 AM 66.2 °F 66.2 °F 100% 30.15 in 10.0 mi East 4.6 mph - N/A   Mostly Cloudy
10:25 AM 66.2 °F 66.2 °F 100% 30.15 in 10.0 mi East 5.8 mph - N/A   Scattered Clouds
10:55 AM 67.5 °F 67.5 °F 100% 29.94 in 10.0 mi East 8.1 mph - 0.02 in   Partly Cloudy
11:54 AM 69.8 °F 64.4 °F 83% 30.13 in 10.0 mi East 4.6 mph - N/A   Clear
11:55 AM 70.3 °F 65.3 °F 84% 29.92 in 10.0 mi East 4.6 mph - N/A   Clear
12:21 PM 71.6 °F 62.6 °F 73% 30.12 in 10.0 mi Calm Calm - N/A   Scattered Clouds
12:54 PM 75.2 °F 64.4 °F 69% 30.11 in 10.0 mi Variable 2.3 mph - N/A   Scattered Clouds
1:54 PM 75.2 °F 64.4 °F 69% 30.09 in 10.0 mi South 5.8 mph - N/A   Partly Cloudy
2:31 PM 75.2 °F 66.2 °F 73% 30.08 in 10.0 mi SSE 12.7 mph - N/A   Light Drizzle
2:54 PM 73.4 °F 64.4 °F 73% 30.08 in 10.0 mi SSE 10.4 mph - N/A Thunderstorm Clear
2:55 PM 73.4 °F 64.4 °F 73% 30.08 in 10.0 mi SSE 10.4 mph - N/A Thunderstorm Clear
3:36 PM 71.6 °F 66.2 °F 83% 30.08 in 10.0 mi South 6.9 mph - N/A   Light Drizzle
3:55 PM 71.6 °F 66.2 °F 83% 30.07 in 10.0 mi SW 6.9 mph - N/A   Clear
3:59 PM 71.6 °F 66.2 °F 83% 30.07 in 10.0 mi SW 6.9 mph - N/A   Light Drizzle
4:10 PM 71.6 °F 66.2 °F 83% 30.06 in 10.0 mi South 5.8 mph - N/A   Clear
4:55 PM 75.2 °F 64.4 °F 69% 30.07 in 10.0 mi SSW 2.3 mph - N/A   Clear
5:55 PM 75.2 °F 66.2 °F 73% 30.07 in 10.0 mi WNW 5.8 mph - N/A   Clear
6:55 PM 73.4 °F 66.2 °F 78% 30.07 in 10.0 mi NW 4.6 mph - N/A   Partly Cloudy
7:55 PM 71.6 °F 68.0 °F 88% 30.08 in 10.0 mi West 3.5 mph - N/A   Clear
8:55 PM 71.6 °F 68.0 °F 88% 30.10 in 10.0 mi SSE 11.5 mph - N/A   Clear
9:55 PM 69.8 °F 66.2 °F 88% 30.10 in 10.0 mi South 6.9 mph - N/A   Clear
10:55 PM 68.0 °F 66.2 °F 94% 30.11 in 10.0 mi WNW 4.6 mph - N/A   Clear
11:55 PM 68.0 °F 68.0 °F 100% 30.11 in 10.0 mi NW 5.8 mph - N/A   Clear